Kenosha Regional Airport
KENW : now visible

Airfield :











YOU CAN JOIN US ON...

 
LOGIN :

Register | Disclaimer

   EN    FR    IT 

 









Legend :    VFR   Marginal VFR   IFR   Intensive IFR   Very Intensive IFR
Visi :
Ceiling :
>= 8 km
>= 3000ft
5 to 8 km
1000 to 3000 ft
1500m to 5 km
500 to 1000 ft
800 to 1500m
200 to 500 ft
< 800m
< 200 ft
Symbols :   Thunderstorms  Fog  Heavy snow  Heavy precipitations  Wind > 20 kt






- Airport Elevation : 742 ft


KENW - Kenosha Regional

CURRENT METAR :
  • 231853Z 27012G17KT 8SM FEW080 32/21 A3007 RMK AO2 SLP175 T03220206

EXPIRED METARs :
  • 231753Z 25008KT 7SM OVC075 30/22 A3008 RMK AO2 SLP179 T03000217 10317 20239 56013
  • 231653Z 26010KT 7SM FEW040 BKN065 BKN080 31/22 A3009 RMK AO2 SLP184 T03060217

TAF KENW
Valid from the 23 at 18:00 until the 24 at 18:00 UTC


231720Z 2318/2418 22007KT P6SM VCSH SCT040 BKN070
FM232300 20007KT P6SM FEW070 SCT250
FM240400 21007KT 5SM HZ SCT250
FM241400 24014KT P6SM SCT250
KZAU FIR / North America



MET'MAP, your aeronautical weather chart ! - Copyright ORBIFLY December 2007 - Disclaimer

ORBIFLY MET'MAP TEAM :

Programming & Development : Alexandra Zaïnal
Concept & original design : Baudouin d'Aumeries
Assistance for programming : Marc-Olivier Méhu
Technical & hardware support : Manuel Goepfert

Contact : metmap@orbifly.com




SOURCES & CREDITS :

   NOAA       Earth
Advisory